Terminal Aerodrome Forecast
Issued by NWS

Home | Current Version | Previous Version | Text Only | Print | Product List | Glossary On
Versions: 1 2 3 4 5 6 7 8 9 10 11 12 13 14 15 16 17 18 19 20 21 22 23 24 25
000
FTUS46 KMTR 260312 AAA
TAFSFO
TAF AMD
KSFO 260312Z 2603/2706 20015G23KT P6SM FEW025
     FM260400 22011KT P6SM SCT025
     FM260500 20008KT P6SM BKN025
     FM261000 21004KT P6SM OVC020
     FM261630 20006KT P6SM SCT025
     FM262000 22014G19KT P6SM FEW025
     FM270300 24010KT P6SM SCT025=

USA.gov is the U.S. government's official web portal to all federal, state and local government web resources and services.